createdAt,value
2022-10-13T00:03:11.232Z,12.10
2022-10-13T00:08:36.342Z,12.90
2022-10-13T00:14:01.011Z,9.67
2022-10-13T00:19:25.199Z,15.17
2022-10-13T00:24:52.991Z,11.13
2022-10-13T00:30:16.308Z,11.27
2022-10-13T00:35:42.306Z,14.37
2022-10-13T00:41:08.783Z,10.50
2022-10-13T00:46:34.192Z,20.87
2022-10-13T00:51:57.358Z,14.13
2022-10-13T00:57:21.867Z,11.53
2022-10-13T01:02:44.930Z,10.07
2022-10-13T01:08:08.220Z,14.57
2022-10-13T01:13:36.016Z,11.77
2022-10-13T01:19:06.654Z,9.67
2022-10-13T01:24:41.673Z,18.00
2022-10-13T01:30:12.071Z,10.47
2022-10-13T01:35:44.573Z,10.30
2022-10-13T01:41:12.949Z,14.53
2022-10-13T01:46:38.912Z,15.10
2022-10-13T01:52:04.833Z,13.10
2022-10-13T01:57:31.881Z,13.83
2022-10-13T02:03:04.899Z,13.67
2022-10-13T02:08:32.390Z,14.10
2022-10-13T02:14:00.777Z,14.43
2022-10-13T02:19:26.354Z,18.37
2022-10-13T02:24:49.440Z,19.73
2022-10-13T02:30:22.294Z,18.37
2022-10-13T02:35:46.707Z,14.93
2022-10-13T02:41:09.740Z,14.47
2022-10-13T02:46:32.843Z,16.50
2022-10-13T02:51:57.209Z,16.53
2022-10-13T02:57:20.251Z,17.00
2022-10-13T03:02:44.330Z,22.33
2022-10-13T03:08:08.851Z,17.07
2022-10-13T03:13:32.965Z,19.90
2022-10-13T03:19:02.475Z,26.20
2022-10-13T03:24:26.856Z,18.13
2022-10-13T03:29:49.865Z,14.67
2022-10-13T03:35:12.909Z,20.33
2022-10-13T03:40:37.901Z,26.40
2022-10-13T03:46:02.345Z,14.70
2022-10-13T03:51:25.619Z,12.23
2022-10-13T03:56:50.261Z,18.80
2022-10-13T04:02:13.239Z,21.77
2022-10-13T04:07:36.264Z,18.60
2022-10-13T04:13:09.582Z,20.70
2022-10-13T04:18:34.907Z,24.97
2022-10-13T04:23:58.580Z,33.37
2022-10-13T04:29:23.004Z,20.83
2022-10-13T04:34:48.087Z,21.90
2022-10-13T04:40:12.329Z,31.33
2022-10-13T04:45:36.697Z,25.27
2022-10-13T04:51:00.999Z,28.17
2022-10-13T04:56:24.781Z,25.67
2022-10-13T05:01:49.237Z,24.93
2022-10-13T05:07:17.928Z,25.90
2022-10-13T05:12:41.946Z,30.73
2022-10-13T05:18:06.711Z,27.60
2022-10-13T05:23:29.737Z,24.90
2022-10-13T05:28:52.883Z,26.47
2022-10-13T05:34:17.272Z,24.13
2022-10-13T05:39:42.192Z,29.93
2022-10-13T05:45:06.245Z,46.57
2022-10-13T05:50:30.895Z,24.97
2022-10-13T05:55:54.769Z,26.93
2022-10-13T06:01:20.266Z,33.93
2022-10-13T06:06:44.781Z,33.70
2022-10-13T06:12:08.815Z,33.10
2022-10-13T06:17:31.952Z,33.67
2022-10-13T06:22:56.998Z,32.23
2022-10-13T06:28:23.865Z,30.17
2022-10-13T06:33:46.932Z,29.83
2022-10-13T06:39:11.703Z,40.80
2022-10-13T06:44:34.922Z,31.73
2022-10-13T06:49:57.974Z,30.17
2022-10-13T06:55:22.374Z,40.73
2022-10-13T07:00:45.527Z,36.03
2022-10-13T07:06:09.304Z,33.57
2022-10-13T07:11:34.028Z,36.60
2022-10-13T07:16:57.148Z,33.63
2022-10-13T07:22:20.289Z,34.10
2022-10-13T07:27:48.076Z,39.77
2022-10-13T07:33:12.188Z,46.37
2022-10-13T07:38:36.619Z,32.17
2022-10-13T07:44:01.442Z,45.17
2022-10-13T07:49:24.808Z,39.90
2022-10-13T07:54:48.068Z,41.30
2022-10-13T08:00:13.666Z,40.00
2022-10-13T08:05:37.897Z,38.60
2022-10-13T08:11:02.238Z,37.77
2022-10-13T08:16:30.050Z,30.40
2022-10-13T08:21:58.618Z,43.63
2022-10-13T08:27:37.024Z,36.83
2022-10-13T08:33:09.479Z,38.30
2022-10-13T08:38:32.621Z,31.70
2022-10-13T08:44:47.612Z,31.90
2022-10-13T08:49:47.639Z,37.60
2022-10-13T08:55:13.069Z,24.83
2022-10-13T09:00:38.005Z,28.73
2022-10-13T09:06:08.294Z,30.33
2022-10-13T09:11:33.953Z,29.77
2022-10-13T09:16:58.714Z,29.07
2022-10-13T09:22:28.675Z,22.73
2022-10-13T09:27:53.936Z,21.13
2022-10-13T09:33:22.171Z,23.30
2022-10-13T09:39:08.327Z,24.60
2022-10-13T09:44:33.085Z,20.97
2022-10-13T09:50:06.510Z,18.30
2022-10-13T09:55:36.399Z,18.57
2022-10-13T10:01:00.267Z,17.97
2022-10-13T10:06:27.826Z,9.90
2022-10-13T10:11:57.190Z,12.03
2022-10-13T10:17:34.158Z,14.83
2022-10-13T10:23:05.268Z,13.07
2022-10-13T10:28:49.105Z,7.57
2022-10-13T10:34:36.153Z,7.70
2022-10-13T10:40:06.275Z,6.23
2022-10-13T10:45:32.713Z,9.70
2022-10-13T10:50:55.972Z,12.53
2022-10-13T10:56:24.051Z,6.10
2022-10-13T11:02:01.126Z,7.97
2022-10-13T11:07:57.862Z,7.00
2022-10-13T11:13:22.050Z,5.03
2022-10-13T11:19:05.581Z,5.60
2022-10-13T11:24:48.568Z,3.57
2022-10-13T11:30:57.568Z,2.13
2022-10-13T11:36:44.689Z,5.90
2022-10-13T11:42:20.885Z,6.73
2022-10-13T11:48:00.464Z,3.60
2022-10-13T11:53:28.191Z,2.80
2022-10-13T11:58:51.280Z,3.00
2022-10-13T12:04:15.692Z,2.07
2022-10-13T12:09:50.301Z,2.97
2022-10-13T12:15:29.360Z,1.97
2022-10-13T12:20:56.537Z,1.63
2022-10-13T12:26:22.944Z,2.30
2022-10-13T12:31:47.400Z,2.27
2022-10-13T12:37:16.331Z,2.43
2022-10-13T12:42:40.828Z,4.23
2022-10-13T12:48:04.165Z,2.83
2022-10-13T12:53:29.642Z,1.60
2022-10-13T12:58:54.259Z,5.23
2022-10-13T13:04:19.975Z,1.10
2022-10-13T13:09:43.101Z,1.10
2022-10-13T13:15:21.898Z,1.27
2022-10-13T13:20:44.980Z,1.53
2022-10-13T13:26:13.371Z,1.43
2022-10-13T13:31:37.939Z,5.47
2022-10-13T13:37:02.607Z,1.53
2022-10-13T13:42:25.928Z,2.23
2022-10-13T13:47:50.394Z,3.53
2022-10-13T13:53:13.535Z,2.47
2022-10-13T13:58:37.106Z,3.37
2022-10-13T14:04:02.995Z,2.77
2022-10-13T14:09:26.308Z,4.63
2022-10-13T14:14:49.435Z,0.80
2022-10-13T14:20:18.021Z,0.60
2022-10-13T14:25:41.280Z,1.90
2022-10-13T14:31:07.787Z,2.20
2022-10-13T14:36:32.919Z,1.60
2022-10-13T14:41:55.985Z,0.90
2022-10-13T14:47:19.463Z,0.60
2022-10-13T14:52:44.073Z,2.47
2022-10-13T14:58:07.172Z,0.87
2022-10-13T15:03:30.647Z,3.50
2022-10-13T15:08:55.180Z,1.10
2022-10-13T15:14:19.939Z,0.50
2022-10-13T15:19:43.032Z,0.90
2022-10-13T15:25:10.362Z,1.47
2022-10-13T15:30:34.395Z,1.37
2022-10-13T15:36:05.343Z,1.80
2022-10-13T15:41:29.897Z,2.17
2022-10-13T15:47:07.351Z,1.57
2022-10-13T15:52:34.753Z,1.47
2022-10-13T15:57:59.613Z,1.03
2022-10-13T16:03:22.620Z,2.33
2022-10-13T16:08:45.660Z,5.37
2022-10-13T16:14:10.061Z,5.43
2022-10-13T16:19:33.297Z,3.43
2022-10-13T16:24:56.885Z,1.50
2022-10-13T16:30:21.488Z,3.33
2022-10-13T16:35:44.625Z,3.47
2022-10-13T16:41:13.100Z,1.57
2022-10-13T16:46:38.919Z,2.07
2022-10-13T16:52:02.482Z,4.07
2022-10-13T16:57:25.818Z,6.43
2022-10-13T17:02:50.230Z,2.17
2022-10-13T17:08:13.393Z,9.23
2022-10-13T17:13:36.986Z,63.17
2022-10-13T17:19:01.482Z,69.00
2022-10-13T17:24:33.577Z,129.30
2022-10-13T17:29:56.664Z,28.27
2022-10-13T17:35:21.106Z,20.03
2022-10-13T17:40:44.192Z,5.97
2022-10-13T17:46:35.148Z,5.20
2022-10-13T17:51:57.304Z,5.60
2022-10-13T17:57:20.692Z,5.83
2022-10-13T18:02:44.303Z,8.23
2022-10-13T18:08:08.762Z,6.60
2022-10-13T18:13:34.892Z,9.50
2022-10-13T18:18:58.062Z,5.83
2022-10-13T18:24:23.780Z,5.30
2022-10-13T18:29:46.790Z,17.27
2022-10-13T18:35:10.566Z,20.37
2022-10-13T18:40:34.998Z,12.57
2022-10-13T18:46:00.220Z,12.43
2022-10-13T18:51:23.289Z,17.40
2022-10-13T18:56:47.807Z,13.00
2022-10-13T19:02:13.944Z,14.77
2022-10-13T19:07:39.139Z,9.53
2022-10-13T19:13:03.791Z,12.47
2022-10-13T19:18:26.816Z,11.37
2022-10-13T19:23:50.382Z,9.67
2022-10-13T19:29:17.356Z,10.97
2022-10-13T19:34:40.439Z,10.53
2022-10-13T19:40:04.089Z,14.03
2022-10-13T19:45:31.728Z,8.90
2022-10-13T19:50:54.835Z,8.33
2022-10-13T19:56:26.087Z,12.27
2022-10-13T20:01:50.549Z,12.47
2022-10-13T20:07:14.123Z,13.50
2022-10-13T20:12:37.237Z,12.13
2022-10-13T20:18:01.802Z,15.97
2022-10-13T20:23:26.723Z,20.80
2022-10-13T20:28:50.856Z,13.83
2022-10-13T20:34:15.287Z,12.90
2022-10-13T20:39:38.519Z,17.70
2022-10-13T20:45:01.713Z,14.73
2022-10-13T20:50:26.374Z,19.10
2022-10-13T20:55:56.378Z,17.43
2022-10-13T21:01:21.059Z,20.90
2022-10-13T21:06:45.868Z,20.67
2022-10-13T21:12:09.088Z,18.23
2022-10-13T21:17:32.413Z,16.47
2022-10-13T21:22:58.120Z,14.20
2022-10-13T21:28:21.211Z,20.03
2022-10-13T21:33:45.011Z,22.80
2022-10-13T21:39:10.395Z,21.13
2022-10-13T21:44:33.530Z,21.40
2022-10-13T21:49:56.650Z,18.50
2022-10-13T21:55:21.115Z,14.47
2022-10-13T22:00:44.366Z,16.47
2022-10-13T22:06:08.402Z,18.47
2022-10-13T22:11:35.070Z,16.70
2022-10-13T22:17:03.121Z,15.97
2022-10-13T22:22:30.139Z,19.40
2022-10-13T22:27:55.467Z,20.40
2022-10-13T22:33:18.697Z,18.97
2022-10-13T22:38:50.299Z,15.80
2022-10-13T22:44:14.867Z,20.07
2022-10-13T22:49:37.931Z,18.03
2022-10-13T22:55:01.018Z,18.73
2022-10-13T23:00:25.453Z,27.53
2022-10-13T23:05:49.453Z,20.23
2022-10-13T23:11:13.086Z,18.13
2022-10-13T23:16:37.606Z,22.90
2022-10-13T23:22:00.752Z,23.73
2022-10-13T23:27:24.129Z,22.77
2022-10-13T23:32:49.273Z,23.53
2022-10-13T23:38:12.354Z,22.57
2022-10-13T23:43:35.846Z,26.33
2022-10-13T23:49:00.469Z,22.03
2022-10-13T23:54:23.704Z,27.30
2022-10-13T23:59:47.186Z,51.97
